sensor_id;sensor_type;location;lat;lon;timestamp;temperature;humidity
20726;DHT22;10524;48.132;8.518;2022-11-20T00:00:37;-0.50;99.90
20726;DHT22;10524;48.132;8.518;2022-11-20T00:03:03;-0.60;99.90
20726;DHT22;10524;48.132;8.518;2022-11-20T00:05:32;-0.60;99.90
20726;DHT22;10524;48.132;8.518;2022-11-20T00:07:58;-0.50;99.90
20726;DHT22;10524;48.132;8.518;2022-11-20T00:10:23;-0.40;99.90
20726;DHT22;10524;48.132;8.518;2022-11-20T00:12:49;-0.40;99.90
20726;DHT22;10524;48.132;8.518;2022-11-20T00:15:15;-0.50;99.90
20726;DHT22;10524;48.132;8.518;2022-11-20T00:17:40;-0.50;99.90
20726;DHT22;10524;48.132;8.518;2022-11-20T00:20:06;-0.50;99.90
20726;DHT22;10524;48.132;8.518;2022-11-20T00:22:32;-0.40;99.90
20726;DHT22;10524;48.132;8.518;2022-11-20T00:24:58;-0.30;99.90
20726;DHT22;10524;48.132;8.518;2022-11-20T00:27:24;-0.30;99.90
20726;DHT22;10524;48.132;8.518;2022-11-20T00:29:49;-0.10;99.90
20726;DHT22;10524;48.132;8.518;2022-11-20T00:32:15;0.00;99.90
20726;DHT22;10524;48.132;8.518;2022-11-20T00:34:40;0.20;99.90
20726;DHT22;10524;48.132;8.518;2022-11-20T00:37:06;0.30;99.90
20726;DHT22;10524;48.132;8.518;2022-11-20T00:39:32;0.60;99.90
20726;DHT22;10524;48.132;8.518;2022-11-20T00:41:57;0.70;99.90
20726;DHT22;10524;48.132;8.518;2022-11-20T00:44:23;0.80;99.90
20726;DHT22;10524;48.132;8.518;2022-11-20T00:46:48;0.80;99.90
20726;DHT22;10524;48.132;8.518;2022-11-20T00:49:14;0.80;99.90
20726;DHT22;10524;48.132;8.518;2022-11-20T00:51:40;0.80;99.90
20726;DHT22;10524;48.132;8.518;2022-11-20T00:54:05;0.80;99.90
20726;DHT22;10524;48.132;8.518;2022-11-20T00:56:31;0.90;99.90
20726;DHT22;10524;48.132;8.518;2022-11-20T00:58:59;0.90;99.90
20726;DHT22;10524;48.132;8.518;2022-11-20T01:01:26;0.80;99.90
20726;DHT22;10524;48.132;8.518;2022-11-20T01:03:55;0.80;99.90
20726;DHT22;10524;48.132;8.518;2022-11-20T01:06:30;0.80;99.90
20726;DHT22;10524;48.132;8.518;2022-11-20T01:08:58;0.90;99.90
20726;DHT22;10524;48.132;8.518;2022-11-20T01:11:29;0.90;99.90
20726;DHT22;10524;48.132;8.518;2022-11-20T01:13:56;0.90;99.90
20726;DHT22;10524;48.132;8.518;2022-11-20T01:18:54;0.90;99.90
20726;DHT22;10524;48.132;8.518;2022-11-20T01:21:29;1.00;99.90
20726;DHT22;10524;48.132;8.518;2022-11-20T01:23:55;1.00;99.90
20726;DHT22;10524;48.132;8.518;2022-11-20T01:26:23;1.00;99.90
20726;DHT22;10524;48.132;8.518;2022-11-20T01:28:50;1.10;99.90
20726;DHT22;10524;48.132;8.518;2022-11-20T01:31:25;1.10;99.90
20726;DHT22;10524;48.132;8.518;2022-11-20T01:33:53;1.20;99.90
20726;DHT22;10524;48.132;8.518;2022-11-20T01:36:20;1.30;99.90
20726;DHT22;10524;48.132;8.518;2022-11-20T01:38:47;1.30;99.90
20726;DHT22;10524;48.132;8.518;2022-11-20T01:41:13;1.30;99.90
20726;DHT22;10524;48.132;8.518;2022-11-20T01:43:59;1.20;99.90
20726;DHT22;10524;48.132;8.518;2022-11-20T01:46:25;1.20;99.90
20726;DHT22;10524;48.132;8.518;2022-11-20T01:54:08;1.20;99.90
20726;DHT22;10524;48.132;8.518;2022-11-20T01:56:39;1.20;99.90
20726;DHT22;10524;48.132;8.518;2022-11-20T01:59:08;1.10;99.90
20726;DHT22;10524;48.132;8.518;2022-11-20T02:01:35;1.00;99.90
20726;DHT22;10524;48.132;8.518;2022-11-20T02:04:01;1.10;99.90
20726;DHT22;10524;48.132;8.518;2022-11-20T02:06:53;1.10;99.90
20726;DHT22;10524;48.132;8.518;2022-11-20T02:09:22;1.10;99.90
20726;DHT22;10524;48.132;8.518;2022-11-20T02:11:48;1.20;99.90
20726;DHT22;10524;48.132;8.518;2022-11-20T02:14:14;1.30;99.90
20726;DHT22;10524;48.132;8.518;2022-11-20T02:16:44;1.40;99.90
20726;DHT22;10524;48.132;8.518;2022-11-20T02:19:24;1.40;99.90
20726;DHT22;10524;48.132;8.518;2022-11-20T02:22:02;1.40;99.90
20726;DHT22;10524;48.132;8.518;2022-11-20T02:24:31;1.50;99.90
20726;DHT22;10524;48.132;8.518;2022-11-20T02:26:58;1.40;99.90
20726;DHT22;10524;48.132;8.518;2022-11-20T02:29:43;1.20;99.90
20726;DHT22;10524;48.132;8.518;2022-11-20T02:32:25;1.00;99.90
20726;DHT22;10524;48.132;8.518;2022-11-20T02:34:52;0.90;99.90
20726;DHT22;10524;48.132;8.518;2022-11-20T02:37:18;1.00;99.90
20726;DHT22;10524;48.132;8.518;2022-11-20T02:39:46;1.00;99.90
20726;DHT22;10524;48.132;8.518;2022-11-20T02:42:13;1.10;99.90
20726;DHT22;10524;48.132;8.518;2022-11-20T02:44:39;1.10;99.90
20726;DHT22;10524;48.132;8.518;2022-11-20T02:47:04;1.10;99.90
20726;DHT22;10524;48.132;8.518;2022-11-20T02:49:30;1.20;99.90
20726;DHT22;10524;48.132;8.518;2022-11-20T02:51:56;1.30;99.90
20726;DHT22;10524;48.132;8.518;2022-11-20T02:54:22;1.30;99.90
20726;DHT22;10524;48.132;8.518;2022-11-20T02:56:48;1.30;99.90
20726;DHT22;10524;48.132;8.518;2022-11-20T02:59:13;1.20;99.90
20726;DHT22;10524;48.132;8.518;2022-11-20T03:01:39;1.00;99.90
20726;DHT22;10524;48.132;8.518;2022-11-20T03:04:05;0.80;99.90
20726;DHT22;10524;48.132;8.518;2022-11-20T03:06:30;0.60;99.90
20726;DHT22;10524;48.132;8.518;2022-11-20T03:08:56;0.40;99.90
20726;DHT22;10524;48.132;8.518;2022-11-20T03:11:21;0.20;99.90
20726;DHT22;10524;48.132;8.518;2022-11-20T03:13:47;0.20;99.90
20726;DHT22;10524;48.132;8.518;2022-11-20T03:16:16;0.10;99.90
20726;DHT22;10524;48.132;8.518;2022-11-20T03:18:42;-0.10;99.90
20726;DHT22;10524;48.132;8.518;2022-11-20T03:21:09;-0.30;99.90
20726;DHT22;10524;48.132;8.518;2022-11-20T03:23:36;-0.50;99.90
20726;DHT22;10524;48.132;8.518;2022-11-20T03:26:20;-0.70;99.90
20726;DHT22;10524;48.132;8.518;2022-11-20T03:28:52;-0.80;99.90
20726;DHT22;10524;48.132;8.518;2022-11-20T03:31:19;-0.90;99.90
20726;DHT22;10524;48.132;8.518;2022-11-20T03:33:45;-1.00;99.90
20726;DHT22;10524;48.132;8.518;2022-11-20T03:36:13;-1.10;99.90
20726;DHT22;10524;48.132;8.518;2022-11-20T03:38:40;-1.10;99.90
20726;DHT22;10524;48.132;8.518;2022-11-20T03:41:11;-1.10;99.90
20726;DHT22;10524;48.132;8.518;2022-11-20T03:43:37;-1.10;99.90
20726;DHT22;10524;48.132;8.518;2022-11-20T03:46:04;-1.10;99.90
20726;DHT22;10524;48.132;8.518;2022-11-20T03:48:31;-1.00;99.90
20726;DHT22;10524;48.132;8.518;2022-11-20T03:51:10;-0.90;99.90
20726;DHT22;10524;48.132;8.518;2022-11-20T03:53:37;-0.90;99.90
20726;DHT22;10524;48.132;8.518;2022-11-20T03:56:03;-0.80;99.90
20726;DHT22;10524;48.132;8.518;2022-11-20T03:58:28;-0.80;99.90
20726;DHT22;10524;48.132;8.518;2022-11-20T04:00:54;-0.90;99.90
20726;DHT22;10524;48.132;8.518;2022-11-20T04:03:20;-0.90;99.90
20726;DHT22;10524;48.132;8.518;2022-11-20T04:05:45;-0.80;99.90
20726;DHT22;10524;48.132;8.518;2022-11-20T04:08:11;-0.80;99.90
20726;DHT22;10524;48.132;8.518;2022-11-20T04:10:37;-0.80;99.90
20726;DHT22;10524;48.132;8.518;2022-11-20T04:13:03;-0.90;99.90
20726;DHT22;10524;48.132;8.518;2022-11-20T04:15:29;-0.80;99.90
20726;DHT22;10524;48.132;8.518;2022-11-20T04:17:55;-0.70;99.90
20726;DHT22;10524;48.132;8.518;2022-11-20T04:20:21;-0.70;99.90
20726;DHT22;10524;48.132;8.518;2022-11-20T04:22:46;-0.90;99.90
20726;DHT22;10524;48.132;8.518;2022-11-20T04:25:12;-0.90;99.90
20726;DHT22;10524;48.132;8.518;2022-11-20T04:27:38;-0.60;99.90
20726;DHT22;10524;48.132;8.518;2022-11-20T04:30:04;-0.30;99.90
20726;DHT22;10524;48.132;8.518;2022-11-20T04:32:29;0.10;99.90
20726;DHT22;10524;48.132;8.518;2022-11-20T04:34:55;0.20;99.90
20726;DHT22;10524;48.132;8.518;2022-11-20T04:37:21;0.20;99.90
20726;DHT22;10524;48.132;8.518;2022-11-20T04:39:46;0.30;99.90
20726;DHT22;10524;48.132;8.518;2022-11-20T04:42:12;0.40;99.90
20726;DHT22;10524;48.132;8.518;2022-11-20T04:44:57;0.60;99.90
20726;DHT22;10524;48.132;8.518;2022-11-20T04:47:22;0.80;99.90
20726;DHT22;10524;48.132;8.518;2022-11-20T04:49:48;0.80;99.90
20726;DHT22;10524;48.132;8.518;2022-11-20T04:52:14;0.80;99.90
20726;DHT22;10524;48.132;8.518;2022-11-20T04:54:39;0.90;99.90
20726;DHT22;10524;48.132;8.518;2022-11-20T04:57:05;1.00;99.90
20726;DHT22;10524;48.132;8.518;2022-11-20T04:59:31;1.00;99.90
20726;DHT22;10524;48.132;8.518;2022-11-20T05:01:56;1.10;99.90
20726;DHT22;10524;48.132;8.518;2022-11-20T05:04:22;1.00;99.90
20726;DHT22;10524;48.132;8.518;2022-11-20T05:06:50;0.80;99.90
20726;DHT22;10524;48.132;8.518;2022-11-20T05:09:16;0.80;99.90
20726;DHT22;10524;48.132;8.518;2022-11-20T05:11:41;0.70;99.90
20726;DHT22;10524;48.132;8.518;2022-11-20T05:14:07;0.60;99.90
20726;DHT22;10524;48.132;8.518;2022-11-20T05:16:34;0.50;99.90
20726;DHT22;10524;48.132;8.518;2022-11-20T05:19:01;0.50;99.90
20726;DHT22;10524;48.132;8.518;2022-11-20T05:21:30;0.60;99.90
20726;DHT22;10524;48.132;8.518;2022-11-20T05:23:56;0.50;99.90
20726;DHT22;10524;48.132;8.518;2022-11-20T05:26:22;0.40;99.90
20726;DHT22;10524;48.132;8.518;2022-11-20T05:28:48;0.30;99.90
20726;DHT22;10524;48.132;8.518;2022-11-20T05:31:23;0.20;99.90
20726;DHT22;10524;48.132;8.518;2022-11-20T05:33:48;0.30;99.90
20726;DHT22;10524;48.132;8.518;2022-11-20T05:36:15;0.20;99.90
20726;DHT22;10524;48.132;8.518;2022-11-20T05:38:42;0.20;99.90
20726;DHT22;10524;48.132;8.518;2022-11-20T05:41:15;0.20;99.90
20726;DHT22;10524;48.132;8.518;2022-11-20T05:43:43;0.20;99.90
20726;DHT22;10524;48.132;8.518;2022-11-20T05:46:11;0.20;99.90
20726;DHT22;10524;48.132;8.518;2022-11-20T05:48:38;0.20;99.90
20726;DHT22;10524;48.132;8.518;2022-11-20T05:51:06;0.10;99.90
20726;DHT22;10524;48.132;8.518;2022-11-20T05:53:33;-0.10;99.90
20726;DHT22;10524;48.132;8.518;2022-11-20T05:56:01;-0.20;99.90
20726;DHT22;10524;48.132;8.518;2022-11-20T05:58:27;-0.30;99.90
20726;DHT22;10524;48.132;8.518;2022-11-20T06:00:53;-0.50;99.90
20726;DHT22;10524;48.132;8.518;2022-11-20T06:03:20;-0.40;99.90
20726;DHT22;10524;48.132;8.518;2022-11-20T06:05:46;-0.10;99.90
20726;DHT22;10524;48.132;8.518;2022-11-20T06:08:11;0.00;99.90
20726;DHT22;10524;48.132;8.518;2022-11-20T06:10:37;0.10;99.90
20726;DHT22;10524;48.132;8.518;2022-11-20T06:13:03;0.20;99.90
20726;DHT22;10524;48.132;8.518;2022-11-20T06:15:28;0.10;99.90
20726;DHT22;10524;48.132;8.518;2022-11-20T06:17:55;0.00;99.90
20726;DHT22;10524;48.132;8.518;2022-11-20T06:20:22;-0.10;99.90
20726;DHT22;10524;48.132;8.518;2022-11-20T06:22:47;-0.10;99.90
20726;DHT22;10524;48.132;8.518;2022-11-20T06:25:13;-0.20;99.90
20726;DHT22;10524;48.132;8.518;2022-11-20T06:27:39;-0.20;99.90
20726;DHT22;10524;48.132;8.518;2022-11-20T06:30:05;-0.30;99.90
20726;DHT22;10524;48.132;8.518;2022-11-20T06:32:31;-0.30;99.90
20726;DHT22;10524;48.132;8.518;2022-11-20T06:34:56;-0.20;99.90
20726;DHT22;10524;48.132;8.518;2022-11-20T06:37:22;-0.10;99.90
20726;DHT22;10524;48.132;8.518;2022-11-20T06:39:47;-0.10;99.90
20726;DHT22;10524;48.132;8.518;2022-11-20T06:42:13;0.10;99.90
20726;DHT22;10524;48.132;8.518;2022-11-20T06:44:39;0.20;99.90
20726;DHT22;10524;48.132;8.518;2022-11-20T06:47:04;0.30;99.90
20726;DHT22;10524;48.132;8.518;2022-11-20T06:49:30;0.40;99.90
20726;DHT22;10524;48.132;8.518;2022-11-20T06:51:56;0.60;99.90
20726;DHT22;10524;48.132;8.518;2022-11-20T06:54:21;0.60;99.90
20726;DHT22;10524;48.132;8.518;2022-11-20T06:56:47;0.60;99.90
20726;DHT22;10524;48.132;8.518;2022-11-20T06:59:13;0.50;99.90
20726;DHT22;10524;48.132;8.518;2022-11-20T07:01:39;0.60;99.90
20726;DHT22;10524;48.132;8.518;2022-11-20T07:04:05;0.70;99.90
20726;DHT22;10524;48.132;8.518;2022-11-20T07:06:31;0.80;99.90
20726;DHT22;10524;48.132;8.518;2022-11-20T07:08:57;1.00;99.90
20726;DHT22;10524;48.132;8.518;2022-11-20T07:11:23;2.10;99.90
20726;DHT22;10524;48.132;8.518;2022-11-20T07:13:49;3.30;99.90
20726;DHT22;10524;48.132;8.518;2022-11-20T07:16:14;4.40;99.90
20726;DHT22;10524;48.132;8.518;2022-11-20T07:18:40;5.20;99.90
20726;DHT22;10524;48.132;8.518;2022-11-20T07:21:08;5.50;99.90
20726;DHT22;10524;48.132;8.518;2022-11-20T07:23:34;5.80;99.90
20726;DHT22;10524;48.132;8.518;2022-11-20T07:26:05;5.80;99.90
20726;DHT22;10524;48.132;8.518;2022-11-20T07:28:31;5.80;99.90
20726;DHT22;10524;48.132;8.518;2022-11-20T07:30:56;6.00;99.90
20726;DHT22;10524;48.132;8.518;2022-11-20T07:33:22;7.00;99.90
20726;DHT22;10524;48.132;8.518;2022-11-20T07:35:48;8.60;99.90
20726;DHT22;10524;48.132;8.518;2022-11-20T07:38:13;10.30;99.90
20726;DHT22;10524;48.132;8.518;2022-11-20T07:40:39;10.70;99.90
20726;DHT22;10524;48.132;8.518;2022-11-20T07:43:05;10.50;99.90
20726;DHT22;10524;48.132;8.518;2022-11-20T07:45:30;10.80;99.90
20726;DHT22;10524;48.132;8.518;2022-11-20T07:47:56;11.30;99.90
20726;DHT22;10524;48.132;8.518;2022-11-20T07:50:22;11.70;99.90
20726;DHT22;10524;48.132;8.518;2022-11-20T07:52:47;11.80;99.90
20726;DHT22;10524;48.132;8.518;2022-11-20T07:55:13;10.50;99.90
20726;DHT22;10524;48.132;8.518;2022-11-20T07:57:39;8.30;99.90
20726;DHT22;10524;48.132;8.518;2022-11-20T08:00:06;9.40;99.90
20726;DHT22;10524;48.132;8.518;2022-11-20T08:02:36;9.00;99.90
20726;DHT22;10524;48.132;8.518;2022-11-20T08:05:02;7.50;99.90
20726;DHT22;10524;48.132;8.518;2022-11-20T08:07:27;6.30;99.90
20726;DHT22;10524;48.132;8.518;2022-11-20T08:09:53;5.60;99.90
20726;DHT22;10524;48.132;8.518;2022-11-20T08:12:20;5.20;99.90
20726;DHT22;10524;48.132;8.518;2022-11-20T08:15:05;4.80;99.90
20726;DHT22;10524;48.132;8.518;2022-11-20T08:17:31;4.40;99.90
20726;DHT22;10524;48.132;8.518;2022-11-20T08:19:57;4.20;99.90
20726;DHT22;10524;48.132;8.518;2022-11-20T08:22:22;4.20;99.90
20726;DHT22;10524;48.132;8.518;2022-11-20T08:24:48;4.40;99.90
20726;DHT22;10524;48.132;8.518;2022-11-20T08:27:14;5.00;99.90
20726;DHT22;10524;48.132;8.518;2022-11-20T08:29:40;5.40;99.90
20726;DHT22;10524;48.132;8.518;2022-11-20T08:32:05;5.50;99.90
20726;DHT22;10524;48.132;8.518;2022-11-20T08:34:31;5.50;99.90
20726;DHT22;10524;48.132;8.518;2022-11-20T08:36:57;5.50;99.90
20726;DHT22;10524;48.132;8.518;2022-11-20T08:39:22;5.50;99.90
20726;DHT22;10524;48.132;8.518;2022-11-20T08:41:48;5.70;99.90
20726;DHT22;10524;48.132;8.518;2022-11-20T08:44:13;5.80;99.90
20726;DHT22;10524;48.132;8.518;2022-11-20T08:46:41;5.60;99.90
20726;DHT22;10524;48.132;8.518;2022-11-20T08:49:11;5.50;99.90
20726;DHT22;10524;48.132;8.518;2022-11-20T08:51:37;5.50;99.90
20726;DHT22;10524;48.132;8.518;2022-11-20T08:54:04;5.50;99.90
20726;DHT22;10524;48.132;8.518;2022-11-20T08:56:30;5.70;99.90
20726;DHT22;10524;48.132;8.518;2022-11-20T08:58:56;6.10;99.90
20726;DHT22;10524;48.132;8.518;2022-11-20T09:04:44;6.80;99.90
20726;DHT22;10524;48.132;8.518;2022-11-20T09:07:09;6.30;99.90
20726;DHT22;10524;48.132;8.518;2022-11-20T09:09:35;5.90;99.90
20726;DHT22;10524;48.132;8.518;2022-11-20T09:12:01;5.80;99.90
20726;DHT22;10524;48.132;8.518;2022-11-20T09:14:26;5.70;99.90
20726;DHT22;10524;48.132;8.518;2022-11-20T09:16:55;5.60;99.90
20726;DHT22;10524;48.132;8.518;2022-11-20T09:19:21;5.40;99.90
20726;DHT22;10524;48.132;8.518;2022-11-20T09:21:46;5.20;99.90
20726;DHT22;10524;48.132;8.518;2022-11-20T09:24:12;4.90;99.90
20726;DHT22;10524;48.132;8.518;2022-11-20T09:26:37;4.80;99.90
20726;DHT22;10524;48.132;8.518;2022-11-20T09:29:03;4.70;99.90
20726;DHT22;10524;48.132;8.518;2022-11-20T09:31:29;4.60;99.90
20726;DHT22;10524;48.132;8.518;2022-11-20T09:33:54;4.50;99.90
20726;DHT22;10524;48.132;8.518;2022-11-20T09:36:20;4.60;99.90
20726;DHT22;10524;48.132;8.518;2022-11-20T09:38:46;4.60;99.90
20726;DHT22;10524;48.132;8.518;2022-11-20T09:52:27;4.40;99.90
20726;DHT22;10524;48.132;8.518;2022-11-20T09:54:56;4.40;99.90
20726;DHT22;10524;48.132;8.518;2022-11-20T09:57:26;4.40;99.90
20726;DHT22;10524;48.132;8.518;2022-11-20T09:59:59;4.50;99.90
20726;DHT22;10524;48.132;8.518;2022-11-20T10:05:20;4.50;99.90
20726;DHT22;10524;48.132;8.518;2022-11-20T10:07:52;4.50;99.90
20726;DHT22;10524;48.132;8.518;2022-11-20T10:13:23;4.70;99.90
20726;DHT22;10524;48.132;8.518;2022-11-20T10:16:01;4.90;99.90
20726;DHT22;10524;48.132;8.518;2022-11-20T10:24:16;5.30;99.90
20726;DHT22;10524;48.132;8.518;2022-11-20T10:29:36;4.90;99.90
20726;DHT22;10524;48.132;8.518;2022-11-20T10:32:04;4.80;99.90
20726;DHT22;10524;48.132;8.518;2022-11-20T10:37:56;4.70;99.90
20726;DHT22;10524;48.132;8.518;2022-11-20T10:40:36;4.70;99.90
20726;DHT22;10524;48.132;8.518;2022-11-20T10:43:16;4.70;99.90
20726;DHT22;10524;48.132;8.518;2022-11-20T10:46:02;4.80;99.90
20726;DHT22;10524;48.132;8.518;2022-11-20T10:48:31;4.90;99.90
20726;DHT22;10524;48.132;8.518;2022-11-20T10:56:58;5.20;99.90
20726;DHT22;10524;48.132;8.518;2022-11-20T10:59:54;5.10;99.90
20726;DHT22;10524;48.132;8.518;2022-11-20T11:02:23;5.20;99.90
20726;DHT22;10524;48.132;8.518;2022-11-20T11:04:53;5.40;99.90
20726;DHT22;10524;48.132;8.518;2022-11-20T11:07:29;5.50;99.90
20726;DHT22;10524;48.132;8.518;2022-11-20T11:09:57;5.80;99.90
20726;DHT22;10524;48.132;8.518;2022-11-20T11:12:25;6.00;99.90
20726;DHT22;10524;48.132;8.518;2022-11-20T11:14:53;6.10;99.90
20726;DHT22;10524;48.132;8.518;2022-11-20T11:17:30;6.40;99.90
20726;DHT22;10524;48.132;8.518;2022-11-20T11:22:23;6.40;99.90
20726;DHT22;10524;48.132;8.518;2022-11-20T11:24:53;6.50;99.90
20726;DHT22;10524;48.132;8.518;2022-11-20T11:27:19;6.20;99.90
20726;DHT22;10524;48.132;8.518;2022-11-20T11:29:47;6.30;99.90
20726;DHT22;10524;48.132;8.518;2022-11-20T11:32:17;6.50;99.90
20726;DHT22;10524;48.132;8.518;2022-11-20T11:34:43;6.70;99.90
20726;DHT22;10524;48.132;8.518;2022-11-20T11:37:18;6.70;99.90
20726;DHT22;10524;48.132;8.518;2022-11-20T11:39:46;6.80;99.90
20726;DHT22;10524;48.132;8.518;2022-11-20T11:42:17;6.80;99.90
20726;DHT22;10524;48.132;8.518;2022-11-20T11:44:45;7.10;99.90
20726;DHT22;10524;48.132;8.518;2022-11-20T11:47:32;9.20;99.90
20726;DHT22;10524;48.132;8.518;2022-11-20T11:50:16;10.50;99.90
20726;DHT22;10524;48.132;8.518;2022-11-20T11:55:17;10.50;99.90
20726;DHT22;10524;48.132;8.518;2022-11-20T12:00:21;9.40;99.90
20726;DHT22;10524;48.132;8.518;2022-11-20T12:02:56;8.70;99.90
20726;DHT22;10524;48.132;8.518;2022-11-20T12:08:23;12.30;99.90
20726;DHT22;10524;48.132;8.518;2022-11-20T12:16:03;10.30;99.90
20726;DHT22;10524;48.132;8.518;2022-11-20T12:18:29;9.40;99.90
20726;DHT22;10524;48.132;8.518;2022-11-20T12:32:06;11.60;99.90
20726;DHT22;10524;48.132;8.518;2022-11-20T12:34:54;11.50;99.90
20726;DHT22;10524;48.132;8.518;2022-11-20T12:51:43;8.00;99.90
20726;DHT22;10524;48.132;8.518;2022-11-20T12:57:14;7.40;99.90
20726;DHT22;10524;48.132;8.518;2022-11-20T13:07:35;7.40;99.90
20726;DHT22;10524;48.132;8.518;2022-11-20T13:10:02;7.40;99.90
20726;DHT22;10524;48.132;8.518;2022-11-20T13:13:00;7.50;99.90
20726;DHT22;10524;48.132;8.518;2022-11-20T13:15:34;7.70;99.90
20726;DHT22;10524;48.132;8.518;2022-11-20T13:18:04;7.90;99.90
20726;DHT22;10524;48.132;8.518;2022-11-20T13:20:32;8.00;99.90
20726;DHT22;10524;48.132;8.518;2022-11-20T13:22:58;8.10;99.90
20726;DHT22;10524;48.132;8.518;2022-11-20T13:25:29;7.60;99.90
20726;DHT22;10524;48.132;8.518;2022-11-20T13:27:57;7.20;99.90
20726;DHT22;10524;48.132;8.518;2022-11-20T13:30:24;6.70;99.90
20726;DHT22;10524;48.132;8.518;2022-11-20T13:32:54;6.40;99.90
20726;DHT22;10524;48.132;8.518;2022-11-20T13:35:29;6.10;99.90
20726;DHT22;10524;48.132;8.518;2022-11-20T13:38:10;5.80;99.90
20726;DHT22;10524;48.132;8.518;2022-11-20T13:40:38;5.90;99.90
20726;DHT22;10524;48.132;8.518;2022-11-20T13:45:32;6.10;99.90
20726;DHT22;10524;48.132;8.518;2022-11-20T13:48:03;6.20;99.90
20726;DHT22;10524;48.132;8.518;2022-11-20T13:55:49;6.10;99.90
20726;DHT22;10524;48.132;8.518;2022-11-20T14:01:29;5.90;99.90
20726;DHT22;10524;48.132;8.518;2022-11-20T14:04:05;5.40;99.90
20726;DHT22;10524;48.132;8.518;2022-11-20T14:06:34;5.10;99.90
20726;DHT22;10524;48.132;8.518;2022-11-20T14:09:04;5.10;99.90
20726;DHT22;10524;48.132;8.518;2022-11-20T14:11:30;5.20;99.90
20726;DHT22;10524;48.132;8.518;2022-11-20T14:13:57;5.30;99.90
20726;DHT22;10524;48.132;8.518;2022-11-20T14:16:25;5.30;99.90
20726;DHT22;10524;48.132;8.518;2022-11-20T14:18:51;5.30;99.90
20726;DHT22;10524;48.132;8.518;2022-11-20T14:21:25;5.40;99.90
20726;DHT22;10524;48.132;8.518;2022-11-20T14:24:06;5.30;99.90
20726;DHT22;10524;48.132;8.518;2022-11-20T14:26:33;5.40;99.90
20726;DHT22;10524;48.132;8.518;2022-11-20T14:28:59;5.30;99.90
20726;DHT22;10524;48.132;8.518;2022-11-20T14:31:26;5.30;99.90
20726;DHT22;10524;48.132;8.518;2022-11-20T14:33:54;5.10;99.90
20726;DHT22;10524;48.132;8.518;2022-11-20T14:36:23;5.10;99.90
20726;DHT22;10524;48.132;8.518;2022-11-20T14:38:49;5.00;99.90
20726;DHT22;10524;48.132;8.518;2022-11-20T14:41:21;4.90;99.90
20726;DHT22;10524;48.132;8.518;2022-11-20T14:43:59;4.90;99.90
20726;DHT22;10524;48.132;8.518;2022-11-20T14:46:25;4.70;99.90
20726;DHT22;10524;48.132;8.518;2022-11-20T14:48:55;4.60;99.90
20726;DHT22;10524;48.132;8.518;2022-11-20T14:51:31;4.60;99.90
20726;DHT22;10524;48.132;8.518;2022-11-20T14:54:11;4.50;99.90
20726;DHT22;10524;48.132;8.518;2022-11-20T14:59:23;4.30;99.90
20726;DHT22;10524;48.132;8.518;2022-11-20T15:02:10;4.30;99.90
20726;DHT22;10524;48.132;8.518;2022-11-20T15:04:50;4.20;99.90
20726;DHT22;10524;48.132;8.518;2022-11-20T15:07:27;4.20;99.90
20726;DHT22;10524;48.132;8.518;2022-11-20T15:10:10;4.10;99.90
20726;DHT22;10524;48.132;8.518;2022-11-20T15:12:54;4.00;99.90
20726;DHT22;10524;48.132;8.518;2022-11-20T15:15:30;3.90;99.90
20726;DHT22;10524;48.132;8.518;2022-11-20T15:17:57;3.90;99.90
20726;DHT22;10524;48.132;8.518;2022-11-20T15:20:26;3.90;99.90
20726;DHT22;10524;48.132;8.518;2022-11-20T15:22:53;3.90;99.90
20726;DHT22;10524;48.132;8.518;2022-11-20T15:25:19;3.90;99.90
20726;DHT22;10524;48.132;8.518;2022-11-20T15:27:49;3.80;99.90
20726;DHT22;10524;48.132;8.518;2022-11-20T15:30:18;3.70;99.90
20726;DHT22;10524;48.132;8.518;2022-11-20T15:32:45;3.90;99.90
20726;DHT22;10524;48.132;8.518;2022-11-20T15:35:12;3.90;99.90
20726;DHT22;10524;48.132;8.518;2022-11-20T15:37:38;3.70;99.90
20726;DHT22;10524;48.132;8.518;2022-11-20T15:40:04;3.70;99.90
20726;DHT22;10524;48.132;8.518;2022-11-20T15:42:30;3.70;99.90
20726;DHT22;10524;48.132;8.518;2022-11-20T15:44:56;3.60;99.90
20726;DHT22;10524;48.132;8.518;2022-11-20T15:47:33;3.50;99.90
20726;DHT22;10524;48.132;8.518;2022-11-20T15:50:00;3.50;99.90
20726;DHT22;10524;48.132;8.518;2022-11-20T15:52:26;3.50;99.90
20726;DHT22;10524;48.132;8.518;2022-11-20T15:54:51;3.40;99.90
20726;DHT22;10524;48.132;8.518;2022-11-20T15:57:17;3.30;99.90
20726;DHT22;10524;48.132;8.518;2022-11-20T15:59:42;3.20;99.90
20726;DHT22;10524;48.132;8.518;2022-11-20T16:02:12;3.10;99.90
20726;DHT22;10524;48.132;8.518;2022-11-20T16:04:38;3.10;99.90
20726;DHT22;10524;48.132;8.518;2022-11-20T16:07:04;2.90;99.90
20726;DHT22;10524;48.132;8.518;2022-11-20T16:09:30;2.80;99.90
20726;DHT22;10524;48.132;8.518;2022-11-20T16:11:56;2.90;99.90
20726;DHT22;10524;48.132;8.518;2022-11-20T16:14:24;2.90;99.90
20726;DHT22;10524;48.132;8.518;2022-11-20T16:17:09;3.10;99.90
20726;DHT22;10524;48.132;8.518;2022-11-20T16:19:35;3.10;99.90
20726;DHT22;10524;48.132;8.518;2022-11-20T16:22:00;3.10;99.90
20726;DHT22;10524;48.132;8.518;2022-11-20T16:24:29;3.10;99.90
20726;DHT22;10524;48.132;8.518;2022-11-20T16:26:55;3.10;99.90
20726;DHT22;10524;48.132;8.518;2022-11-20T16:29:20;3.10;99.90
20726;DHT22;10524;48.132;8.518;2022-11-20T16:31:46;3.20;99.90
20726;DHT22;10524;48.132;8.518;2022-11-20T16:34:12;3.20;99.90
20726;DHT22;10524;48.132;8.518;2022-11-20T16:36:40;3.20;99.90
20726;DHT22;10524;48.132;8.518;2022-11-20T16:39:06;3.20;99.90
20726;DHT22;10524;48.132;8.518;2022-11-20T16:41:33;3.20;99.90
20726;DHT22;10524;48.132;8.518;2022-11-20T16:44:01;3.40;99.90
20726;DHT22;10524;48.132;8.518;2022-11-20T16:46:31;3.50;99.90
20726;DHT22;10524;48.132;8.518;2022-11-20T16:48:59;3.50;99.90
20726;DHT22;10524;48.132;8.518;2022-11-20T16:51:25;3.50;99.90
20726;DHT22;10524;48.132;8.518;2022-11-20T16:53:51;3.50;99.90
20726;DHT22;10524;48.132;8.518;2022-11-20T16:56:20;3.40;99.90
20726;DHT22;10524;48.132;8.518;2022-11-20T16:58:48;3.50;99.90
20726;DHT22;10524;48.132;8.518;2022-11-20T17:01:17;3.50;99.90
20726;DHT22;10524;48.132;8.518;2022-11-20T17:03:45;3.60;99.90
20726;DHT22;10524;48.132;8.518;2022-11-20T17:06:16;3.60;99.90
20726;DHT22;10524;48.132;8.518;2022-11-20T17:08:42;3.60;99.90
20726;DHT22;10524;48.132;8.518;2022-11-20T17:11:10;3.50;99.90
20726;DHT22;10524;48.132;8.518;2022-11-20T17:13:36;3.50;99.90
20726;DHT22;10524;48.132;8.518;2022-11-20T17:16:04;3.60;99.90
20726;DHT22;10524;48.132;8.518;2022-11-20T17:18:30;3.50;99.90
20726;DHT22;10524;48.132;8.518;2022-11-20T17:20:57;3.50;99.90
20726;DHT22;10524;48.132;8.518;2022-11-20T17:23:22;3.50;99.90
20726;DHT22;10524;48.132;8.518;2022-11-20T17:25:48;3.50;99.90
20726;DHT22;10524;48.132;8.518;2022-11-20T17:28:14;3.50;99.90
20726;DHT22;10524;48.132;8.518;2022-11-20T17:30:39;3.50;99.90
20726;DHT22;10524;48.132;8.518;2022-11-20T17:33:05;3.50;99.90
20726;DHT22;10524;48.132;8.518;2022-11-20T17:35:30;3.50;99.90
20726;DHT22;10524;48.132;8.518;2022-11-20T17:37:56;3.50;99.90
20726;DHT22;10524;48.132;8.518;2022-11-20T17:40:22;3.50;99.90